Friday, October 31, 2014
12:12 UTC
  |  Log In   |  Register Free
Airport Search:

Ormond Beach Municipal Airport
(KOMN)

FAA data valid effective September 18, 2014 - November 13, 2014 (unless otherwise noted).

 
 
 
 
 
 
 
 
 
 
 
 
 
 

Current Aviation Weather for Ormond Beach Municipal Airport (KOMN)

The most recent METAR observation for KOMN was updated at: 1116
METAR Summary (Translated METAR)
KOMN
311050Z 31003KT 10SM BKN030 OVC047 18/17 A2984 RMK FIRST
KDAB
311153Z 24003KT 10SM BKN033 BKN044 OVC060 18/17 A2986 RMK AO2 RAB17E39 SLP111 P0000 60000 70001 T01780167 10189 20178 53007
(7.8 nm SE from KOMN)
KXFL
311055Z 30004KT 7SM BKN050 --/-- A2985
(11.1 nm NW from KOMN)
TAF Summary (Translated TAF)
KDAB
(7.8 nm SE from KOMN)
310538Z 3106/0106 30003KT P6SM SCT070 SCT100 FM311300 31007KT P6SM FEW050 SCT250
  Airport Weather Conditions for KOMN

 Current Weather at OMN
73° F
Partly Cloudy
North winds at 0.0 mph
OMN NOAA Radar

Pressure: 29.89 in
Humidity: 83%
Wind: Calm
Dew Point: 68.0°F
Visibility: 10.00 mi


Airport Weather Forecast for KOMN

Translated METAR and TAF for KOMN
Translated METAR for KOMN (1207 UTC 31 October 2014)
found at http://aviationweather.gov/adds/metars/
 
METAR text: KOMN 311150Z 31003KT 10SM VCSH BKN034 BKN060 17/15 A2986
Conditions at: KOMN (ORMOND BEACH VOR, FL, US) observed 1150 UTC 31 October 2014
Temperature: 17.0°C (63°F)
Dewpoint: 15.0°C (59°F) [RH = 88%]
Pressure (altimeter): 29.86 inches Hg (1011.3 mb)
Winds: from the NW (310 degrees) at 3 MPH (3 knots; 1.6 m/s)
Visibility: 10 or more miles (16+ km)
Ceiling: 3400 feet AGL
Clouds: broken clouds at 3400 feet AGL
broken clouds at 6000 feet AGL
Weather: VCSH  (showers in vicinity)
Translated TAF for KOMN

There is no translated TAF available for this airport

Find All Airport Services Find A Hotel Find A Rental Car Find A Golf Course Find A Restaurant $100 Hamburger



FBO's on the Field
FBO Company Facility Photos Services Transportation Aviation Fuel Prices: Prices include tax
Catering Weather Repair Courtesy Rental Type 100LL JetA JetA+ MOGAS 8087
 
Sunrise Aviation

Currently rated 1.9 by 3 people
FS:Shell
Last Updated: Sep-26
Login to update fuel prices
SS:
Contact Sunrise AviationMore FBO Information
 
Add another FBO Facility Photos Catering Weather Repair Courtesy Rental Type 100LL JetA JetA+ MOGAS 8087
Services Transportation Aviation Fuel Prices: Prices include tax


model-print
model-print
model-print
model-print